Montrose, MO (64770)

1:44 PM CDT on August 27, 2014 (GMT -0500)
Clinton Memorial | Change Station
CLOSE
Current Station
Airport
Location: Clinton,
Elevation: 823 ft
Nearby Weather Stations

Elev 823 ft 38.36 °N, 93.68 °W | Updated 9 minutes ago

Mostly Cloudy
Mostly Cloudy
84 °F
Feels Like 91 °F
N
7
Wind Variable Wind from ESE

Today
High -- | Low -- °F
--% Chance of Precip.
Yesterday
High -- | Low -- °F
Precip. -- in
6:41 AM 7:52 PM
Waxing Crescent, 4% visible
Pressure 30.12 in
Visibility 9.0 miles
Clouds Few 2600 ft
Mostly Cloudy 3300 ft
Mostly Cloudy 6000 ft
Heat Index 91 °F
Dew Point 73 °F
Humidity 70%
Rainfall 0.00 in
Snow Depth Not available.
UV 5 out of 12
Pollen 10.90 out of 12
Air Quality Not available.
Flu Activity Not available.
METAR KGLY 271835Z AUTO 11006KT 9SM FEW026 BKN033 BKN060 29/23 A3012 RMK AO2

More Conditions Fewer Conditions

Pressure 30.12 in
Visibility 9.0 miles
Clouds Few 2600 ft
Mostly Cloudy 3300 ft
Mostly Cloudy 6000 ft
Heat Index 91 °F
Dew Point 73 °F
Humidity 70%
Rainfall 0.00 in
Snow Depth Not available.
UV 5 out of 12
Pollen 10.90 out of 12
Air Quality Not available.
Flu Activity Not available.
METAR KGLY 271835Z AUTO 11006KT 9SM FEW026 BKN033 BKN060 29/23 A3012 RMK AO2

More Conditions Fewer Conditions

10-Day Weather Forecast

Almanac

Astronomy

Aug. 27, 2014 Rise Set
Actual Time 6:41 AM CDT 7:52 PM CDT
Civil Twilight 6:13 AM CDT 8:20 PM CDT
Nautical Twilight 5:41 AM CDT 8:52 PM CDT
Astronomical Twilight 5:07 AM CDT 9:26 PM CDT
Moon 8:35 AM CDT 8:48 PM CDT
Length of Visible Light 14h 06m
Length of Day
13h 11m
Tomorrow will be 2m 20s shorter.
Waxing Crescent, 4% of the Moon is Illuminated
Today
Waxing Crescent
Sep 2
First Quarter
Sep 8
Full
Sep 15
Last Quarter
Sep 24
New

Today's Extremes

State Highs State Lows

Community

WunderPhotos

Upload Photos

1,747,752 photos uploaded!

Nearby

Snow Depth

Station Depth Elevation
No new snow has been reported.

Earthquake Activity

City Distance Mag. Time & Date
No recent earthquake activity has been reported nearby.
Minimum magnitude displayed is 2.5.

Coastal Water Temperatures

Place Temperature
No Stations Reporting

Nearby Weather Stations